createdAt,value
2022-11-20T00:00:28.848Z,101520.88
2022-11-20T00:02:57.739Z,101521.72
2022-11-20T00:05:26.548Z,101520.88
2022-11-20T00:07:56.115Z,101517.41
2022-11-20T00:10:26.888Z,101511.25
2022-11-20T00:12:55.869Z,101525.31
2022-11-20T00:15:24.433Z,101520.91
2022-11-20T00:17:53.062Z,101521.75
2022-11-20T00:20:21.634Z,101525.31
2022-11-20T00:22:50.436Z,101517.41
2022-11-20T00:25:19.244Z,101511.25
2022-11-20T00:27:54.183Z,101514.81
2022-11-20T00:30:22.843Z,101511.25
2022-11-20T00:32:51.541Z,101507.72
2022-11-20T00:35:23.141Z,101498.97
2022-11-20T00:37:51.783Z,101510.41
2022-11-20T00:40:20.452Z,101512.13
2022-11-20T00:42:50.770Z,101514.81
2022-11-20T00:45:20.575Z,101508.66
2022-11-20T00:47:48.864Z,101508.59
2022-11-20T00:50:18.261Z,101503.38
2022-11-20T00:52:47.009Z,101499.81
2022-11-20T00:55:15.840Z,101509.50
2022-11-20T00:57:44.931Z,101497.25
2022-11-20T01:00:22.149Z,101496.38
2022-11-20T01:02:51.111Z,101491.09
2022-11-20T01:05:19.552Z,101484.06
2022-11-20T01:07:49.400Z,101485.81
2022-11-20T01:10:19.390Z,101477.94
2022-11-20T01:13:08.507Z,101487.56
2022-11-20T01:15:38.509Z,101483.16
2022-11-20T01:18:08.394Z,101487.56
2022-11-20T01:20:38.562Z,101489.38
2022-11-20T01:23:09.146Z,101486.78
2022-11-20T01:25:37.677Z,101470.97
2022-11-20T01:28:06.113Z,101474.47
2022-11-20T01:30:35.206Z,101469.19
2022-11-20T01:33:06.792Z,101466.59
2022-11-20T01:35:41.003Z,101459.53
2022-11-20T01:38:14.039Z,101460.47
2022-11-20T01:40:45.957Z,101457.81
2022-11-20T01:43:22.102Z,101459.56
2022-11-20T01:46:05.154Z,101465.72
2022-11-20T01:48:41.016Z,101463.09
2022-11-20T01:51:20.227Z,101459.56
2022-11-20T01:53:50.554Z,101449.94
2022-11-20T01:56:20.259Z,101458.72
2022-11-20T01:58:56.632Z,101457.81
2022-11-20T02:01:25.755Z,101455.19
2022-11-20T02:03:56.975Z,101439.44
2022-11-20T02:06:32.732Z,101443.81
2022-11-20T02:09:05.489Z,101452.56
2022-11-20T02:11:34.802Z,101457.81
2022-11-20T02:14:04.404Z,101444.66
2022-11-20T02:16:38.011Z,101449.97
2022-11-20T02:19:27.147Z,101448.19
2022-11-20T02:22:04.485Z,101445.56
2022-11-20T02:24:37.024Z,101453.44
2022-11-20T02:27:11.042Z,101441.16
2022-11-20T02:29:44.546Z,101465.72
2022-11-20T02:32:21.970Z,101450.81
2022-11-20T02:34:51.256Z,101443.81
2022-11-20T02:37:22.504Z,101446.44
2022-11-20T02:39:54.469Z,101447.31
2022-11-20T02:42:23.805Z,101442.03
2022-11-20T02:44:58.635Z,101436.78
2022-11-20T02:47:29.126Z,101435.91
2022-11-20T02:49:57.657Z,101434.16
2022-11-20T02:52:26.885Z,101423.63
2022-11-20T02:54:58.649Z,101423.63
2022-11-20T02:57:27.668Z,101431.50
2022-11-20T02:59:56.942Z,101433.25
2022-11-20T03:02:26.055Z,101426.25
2022-11-20T03:04:55.037Z,101420.13
2022-11-20T03:07:24.467Z,101425.41
2022-11-20T03:09:55.693Z,101431.50
2022-11-20T03:12:27.549Z,101410.47
2022-11-20T03:14:57.162Z,101415.75
2022-11-20T03:17:26.885Z,101407.84
2022-11-20T03:19:56.732Z,101397.34
2022-11-20T03:22:31.504Z,101409.59
2022-11-20T03:25:00.239Z,101390.28
2022-11-20T03:27:36.664Z,101405.22
2022-11-20T03:30:06.573Z,101392.09
2022-11-20T03:32:35.711Z,101393.81
2022-11-20T03:35:04.967Z,101399.97
2022-11-20T03:37:35.291Z,101402.59
2022-11-20T03:40:04.283Z,101385.06
2022-11-20T03:42:47.947Z,101390.31
2022-11-20T03:45:18.872Z,101377.16
2022-11-20T03:47:47.850Z,101377.16
2022-11-20T03:50:17.879Z,101379.78
2022-11-20T03:52:46.459Z,101368.41
2022-11-20T03:55:15.151Z,101372.78
2022-11-20T03:57:46.018Z,101363.16
2022-11-20T04:00:16.707Z,101378.03
2022-11-20T04:02:46.614Z,101361.38
2022-11-20T04:05:17.701Z,101366.66
2022-11-20T04:07:46.671Z,101368.41
2022-11-20T04:10:16.495Z,101372.78
2022-11-20T04:12:47.896Z,101364.00
2022-11-20T04:15:17.067Z,101355.25
2022-11-20T04:17:46.035Z,101357.91
2022-11-20T04:20:16.075Z,101348.28
2022-11-20T04:22:44.941Z,101349.97
2022-11-20T04:25:13.824Z,101349.97
2022-11-20T04:27:42.851Z,101367.53
2022-11-20T04:30:14.889Z,101351.75
2022-11-20T04:32:44.660Z,101365.78
2022-11-20T04:35:13.402Z,101358.75
2022-11-20T04:37:42.121Z,101347.34
2022-11-20T04:40:12.391Z,101349.16
2022-11-20T04:42:43.226Z,101361.38
2022-11-20T04:45:13.756Z,101357.91
2022-11-20T04:47:43.614Z,101353.50
2022-11-20T04:50:13.077Z,101345.63
2022-11-20T04:52:42.380Z,101332.50
2022-11-20T04:55:11.504Z,101341.25
2022-11-20T04:57:40.604Z,101340.38
2022-11-20T05:00:19.310Z,101348.28
2022-11-20T05:02:49.529Z,101345.63
2022-11-20T05:05:18.705Z,101354.38
2022-11-20T05:07:48.024Z,101356.16
2022-11-20T05:10:18.262Z,101342.97
2022-11-20T05:12:47.577Z,101329.88
2022-11-20T05:15:18.390Z,101349.13
2022-11-20T05:17:50.547Z,101331.59
2022-11-20T05:20:20.586Z,101347.38
2022-11-20T05:22:52.766Z,101342.16
2022-11-20T05:25:22.140Z,101339.53
2022-11-20T05:27:52.835Z,101338.66
2022-11-20T05:30:23.569Z,101326.34
2022-11-20T05:32:52.388Z,101313.19
2022-11-20T05:35:20.755Z,101309.69
2022-11-20T05:37:49.617Z,101292.16
2022-11-20T05:40:19.332Z,101298.28
2022-11-20T05:42:48.111Z,101296.53
2022-11-20T05:45:18.951Z,101316.72
2022-11-20T05:47:49.621Z,101327.25
2022-11-20T05:50:19.947Z,101333.38
2022-11-20T05:52:49.305Z,101328.13
2022-11-20T05:55:18.737Z,101328.13
2022-11-20T05:57:47.963Z,101329.00
2022-11-20T06:00:18.427Z,101327.25
2022-11-20T06:02:50.334Z,101336.88
2022-11-20T06:05:18.798Z,101326.38
2022-11-20T06:07:48.441Z,101328.13
2022-11-20T06:10:17.434Z,101330.75
2022-11-20T06:12:47.448Z,101328.09
2022-11-20T06:15:16.604Z,101339.53
2022-11-20T06:17:45.895Z,101336.88
2022-11-20T06:20:18.399Z,101341.28
2022-11-20T06:22:50.628Z,101340.38
2022-11-20T06:25:19.582Z,101340.38
2022-11-20T06:27:49.445Z,101340.38
2022-11-20T06:30:19.137Z,101336.88
2022-11-20T06:32:47.537Z,101327.25
2022-11-20T06:35:21.934Z,101322.00
2022-11-20T06:37:50.711Z,101322.84
2022-11-20T06:40:20.250Z,101333.34
2022-11-20T06:42:51.603Z,101344.78
2022-11-20T06:45:20.374Z,101343.00
2022-11-20T06:47:49.558Z,101338.63
2022-11-20T06:50:22.135Z,101331.63
2022-11-20T06:52:51.854Z,101332.47
2022-11-20T06:55:20.362Z,101325.47
2022-11-20T06:57:53.280Z,101321.09
2022-11-20T07:00:26.424Z,101313.22
2022-11-20T07:02:56.120Z,101311.47
2022-11-20T07:05:30.238Z,101314.06
2022-11-20T07:07:59.119Z,101307.91
2022-11-20T07:10:27.789Z,101319.31
2022-11-20T07:12:57.933Z,101316.69
2022-11-20T07:15:28.176Z,101310.53
2022-11-20T07:17:57.261Z,101317.59
2022-11-20T07:20:30.235Z,101309.69
2022-11-20T07:23:00.327Z,101309.66
2022-11-20T07:25:31.802Z,101308.81
2022-11-20T07:28:01.197Z,101299.19
2022-11-20T07:30:31.079Z,101301.00
2022-11-20T07:33:00.705Z,101295.69
2022-11-20T07:35:33.958Z,101305.34
2022-11-20T07:38:03.613Z,101301.84
2022-11-20T07:40:32.068Z,101301.88
2022-11-20T07:43:15.098Z,101306.13
2022-11-20T07:51:38.239Z,101307.84
2022-11-20T07:59:48.067Z,101297.34
2022-11-20T08:02:25.160Z,101300.88
2022-11-20T08:04:53.837Z,101306.00
2022-11-20T08:08:34.238Z,101292.66
2022-11-20T08:17:35.992Z,101282.97
2022-11-20T08:22:56.763Z,101273.13
2022-11-20T08:28:26.841Z,101273.03
2022-11-20T08:31:06.614Z,101271.13
2022-11-20T08:33:42.028Z,101270.81
2022-11-20T08:36:12.193Z,101269.19
2022-11-20T08:38:41.179Z,101269.34
2022-11-20T08:41:29.973Z,101272.69
2022-11-20T08:44:04.762Z,101266.41
2022-11-20T08:46:38.086Z,101271.00
2022-11-20T08:49:08.464Z,101275.50
2022-11-20T08:51:49.559Z,101271.44
2022-11-20T08:54:22.045Z,101272.13
2022-11-20T08:56:56.173Z,101271.59
2022-11-20T08:59:50.682Z,101261.03
2022-11-20T09:02:15.018Z,101256.53
2022-11-20T09:04:43.769Z,101262.13
2022-11-20T09:07:12.718Z,101250.25
2022-11-20T09:09:41.701Z,101250.75
2022-11-20T09:12:10.670Z,101249.28
2022-11-20T09:14:54.741Z,101246.59
2022-11-20T09:17:28.384Z,101235.47
2022-11-20T09:19:57.404Z,101236.28
2022-11-20T09:22:25.775Z,101237.72
2022-11-20T09:24:54.550Z,101232.84
2022-11-20T09:27:25.083Z,101236.13
2022-11-20T09:29:55.600Z,101231.25
2022-11-20T09:32:24.788Z,101221.25
2022-11-20T09:35:02.195Z,101220.75
2022-11-20T09:37:32.417Z,101217.88
2022-11-20T09:40:16.343Z,101208.25
2022-11-20T09:49:55.627Z,101192.22
2022-11-20T09:58:59.054Z,101198.28
2022-11-20T10:01:57.277Z,101187.13
2022-11-20T10:07:37.463Z,101187.94
2022-11-20T10:10:11.931Z,101183.19
2022-11-20T10:13:04.007Z,101176.56
2022-11-20T10:15:52.303Z,101172.78
2022-11-20T10:18:40.486Z,101163.38
2022-11-20T10:21:18.903Z,101173.78
2022-11-20T10:28:05.705Z,101171.94
2022-11-20T10:30:40.834Z,101161.56
2022-11-20T10:33:24.976Z,101156.81
2022-11-20T10:36:20.108Z,101158.63
2022-11-20T10:38:58.696Z,101133.06
2022-11-20T10:41:37.101Z,101141.88
2022-11-20T10:44:16.135Z,101134.66
2022-11-20T10:46:49.368Z,101131.78
2022-11-20T10:49:22.696Z,101126.88
2022-11-20T10:52:19.401Z,101113.50
2022-11-20T10:55:03.133Z,101115.34
2022-11-20T10:57:55.756Z,101113.63
2022-11-20T11:00:25.571Z,101110.28
2022-11-20T11:06:12.110Z,101098.16
2022-11-20T11:15:49.533Z,101095.50
2022-11-20T11:24:41.661Z,101073.66
2022-11-20T11:30:55.490Z,101059.91
2022-11-20T11:33:28.550Z,101052.28
2022-11-20T11:36:01.320Z,101046.56
2022-11-20T11:38:50.884Z,101048.00
2022-11-20T11:41:29.459Z,101052.25
2022-11-20T11:44:24.088Z,101049.03
2022-11-20T11:46:59.946Z,101036.22
2022-11-20T11:49:29.242Z,101042.47
2022-11-20T11:52:16.364Z,101034.28
2022-11-20T11:54:55.560Z,101029.50
2022-11-20T11:57:38.231Z,101024.50
2022-11-20T12:00:32.591Z,101017.97
2022-11-20T12:03:17.482Z,101010.00
2022-11-20T12:05:59.590Z,101000.91
2022-11-20T12:08:36.025Z,100998.94
2022-11-20T12:11:16.285Z,100996.19
2022-11-20T12:13:56.676Z,100990.38
2022-11-20T12:16:27.157Z,100992.84
2022-11-20T12:19:03.199Z,100984.72
2022-11-20T12:21:45.746Z,100991.59
2022-11-20T12:49:41.640Z,100951.94
2022-11-20T13:02:01.266Z,100911.19
2022-11-20T13:04:58.811Z,100900.19
2022-11-20T13:07:30.674Z,100905.31
2022-11-20T13:10:04.312Z,100903.03
2022-11-20T13:29:06.687Z,100851.94
2022-11-20T13:47:52.527Z,100848.19
2022-11-20T13:54:43.695Z,100857.28
2022-11-20T13:58:07.244Z,100846.16
2022-11-20T14:00:59.439Z,100832.28
2022-11-20T14:07:27.015Z,100819.31
2022-11-20T14:15:46.030Z,100811.09
2022-11-20T14:21:11.292Z,100803.50
2022-11-20T14:23:41.698Z,100800.41
2022-11-20T14:26:19.823Z,100807.50
2022-11-20T14:31:54.987Z,100785.38
2022-11-20T14:34:35.211Z,100774.31
2022-11-20T14:37:16.829Z,100759.50
2022-11-20T14:40:08.731Z,100770.84
2022-11-20T15:20:35.398Z,100728.31
2022-11-20T15:23:05.078Z,100725.25
2022-11-20T15:25:49.646Z,100730.16
2022-11-20T15:31:28.217Z,100710.63
2022-11-20T15:34:13.221Z,100710.84
2022-11-20T15:37:00.738Z,100706.44
2022-11-20T15:39:33.721Z,100707.25
2022-11-20T15:42:03.015Z,100706.81
2022-11-20T15:44:32.148Z,100698.44
2022-11-20T15:47:00.473Z,100693.03
2022-11-20T15:49:31.967Z,100689.31
2022-11-20T15:52:03.301Z,100696.25
2022-11-20T15:54:38.208Z,100691.22
2022-11-20T15:57:08.918Z,100689.53
2022-11-20T15:59:43.274Z,100677.72
2022-11-20T16:02:24.722Z,100682.88
2022-11-20T16:19:54.068Z,100658.41
2022-11-20T16:33:20.048Z,100631.44
2022-11-20T16:39:06.777Z,100636.31
2022-11-20T16:48:17.867Z,100632.53
2022-11-20T17:13:47.312Z,100574.94
2022-11-20T17:16:36.047Z,100576.81
2022-11-20T17:19:06.534Z,100570.97
2022-11-20T17:21:45.307Z,100567.22
2022-11-20T17:33:12.412Z,100577.16
2022-11-20T17:35:46.323Z,100561.50
2022-11-20T17:38:15.799Z,100565.44
2022-11-20T17:40:47.015Z,100555.97
2022-11-20T17:43:17.785Z,100565.31
2022-11-20T17:49:01.573Z,100568.53
2022-11-20T17:51:42.960Z,100563.09
2022-11-20T17:54:33.011Z,100563.44
2022-11-20T18:00:10.173Z,100551.34
2022-11-20T18:03:05.348Z,100558.72
2022-11-20T18:09:34.425Z,100561.16
2022-11-20T18:12:18.916Z,100569.19
2022-11-20T18:29:36.449Z,100555.41
2022-11-20T18:32:08.594Z,100556.78
2022-11-20T18:34:53.711Z,100558.34
2022-11-20T18:43:14.306Z,100574.03
2022-11-20T18:45:43.903Z,100581.47
2022-11-20T18:48:13.752Z,100589.44
2022-11-20T18:50:44.535Z,100589.66
2022-11-20T18:53:15.380Z,100596.91
2022-11-20T18:58:35.258Z,100584.69
2022-11-20T19:04:18.261Z,100590.16
2022-11-20T19:06:53.156Z,100585.13
2022-11-20T19:09:25.669Z,100604.22
2022-11-20T19:11:59.520Z,100592.94
2022-11-20T19:14:34.509Z,100591.41
2022-11-20T19:17:05.934Z,100587.97
2022-11-20T19:22:35.443Z,100575.25
2022-11-20T19:25:09.081Z,100574.22
2022-11-20T19:30:28.453Z,100572.38
2022-11-20T19:33:14.893Z,100566.00
2022-11-20T19:35:55.660Z,100570.56
2022-11-20T19:38:27.941Z,100569.41
2022-11-20T19:40:59.133Z,100568.97
2022-11-20T19:43:29.558Z,100561.81
2022-11-20T19:46:22.874Z,100559.63
2022-11-20T19:51:54.940Z,100561.16
2022-11-20T19:54:44.934Z,100565.88
2022-11-20T19:57:33.890Z,100563.59
2022-11-20T20:00:29.571Z,100557.41
2022-11-20T20:05:57.903Z,100568.91
2022-11-20T20:08:43.748Z,100564.53
2022-11-20T20:11:20.612Z,100570.00
2022-11-20T20:16:47.399Z,100579.44
2022-11-20T20:22:11.883Z,100581.81
2022-11-20T20:24:50.266Z,100578.19
2022-11-20T20:33:13.819Z,100590.88
2022-11-20T20:36:03.102Z,100583.19
2022-11-20T20:38:41.439Z,100593.41
2022-11-20T20:41:14.534Z,100595.91
2022-11-20T20:46:50.350Z,100611.72
2022-11-20T20:49:27.052Z,100608.59
2022-11-20T20:52:16.555Z,100612.31
2022-11-20T20:54:45.622Z,100604.81
2022-11-20T20:57:14.528Z,100599.38
2022-11-20T20:59:48.720Z,100605.53
2022-11-20T21:02:23.169Z,100615.38
2022-11-20T21:05:01.489Z,100609.25
2022-11-20T21:07:32.908Z,100621.31
2022-11-20T21:10:02.190Z,100610.78
2022-11-20T21:12:31.631Z,100619.13
2022-11-20T21:15:05.342Z,100612.31
2022-11-20T21:17:34.532Z,100599.59
2022-11-20T21:20:23.487Z,100616.50
2022-11-20T21:22:53.238Z,100611.63
2022-11-20T21:25:33.761Z,100627.72
2022-11-20T21:28:18.617Z,100627.03
2022-11-20T21:30:49.367Z,100625.59
2022-11-20T21:36:17.515Z,100636.94
2022-11-20T21:38:51.803Z,100636.28
2022-11-20T21:41:25.564Z,100636.16
2022-11-20T21:44:29.678Z,100649.31
2022-11-20T21:46:47.839Z,100643.81
2022-11-20T21:49:18.417Z,100642.72
2022-11-20T21:51:56.059Z,100645.38
2022-11-20T21:54:29.000Z,100649.78
2022-11-20T21:57:00.084Z,100656.78
2022-11-20T21:59:31.014Z,100657.81
2022-11-20T22:02:02.371Z,100660.22
2022-11-20T22:04:38.212Z,100662.00
2022-11-20T22:07:09.242Z,100659.63
2022-11-20T22:09:54.501Z,100677.22
2022-11-20T22:12:28.090Z,100679.75
2022-11-20T22:14:56.736Z,100684.88
2022-11-20T22:17:39.119Z,100672.97
2022-11-20T22:20:14.956Z,100683.47
2022-11-20T22:22:54.158Z,100687.03
2022-11-20T22:25:39.846Z,100675.56
2022-11-20T22:28:11.063Z,100676.22
2022-11-20T22:30:40.901Z,100684.63
2022-11-20T22:33:13.890Z,100682.81
2022-11-20T22:35:58.616Z,100671.56
2022-11-20T22:38:39.549Z,100682.16
2022-11-20T22:41:17.167Z,100684.91
2022-11-20T22:43:47.947Z,100699.19
2022-11-20T22:46:19.056Z,100702.69
2022-11-20T22:48:53.098Z,100707.78
2022-11-20T22:51:25.827Z,100703.50
2022-11-20T22:53:55.690Z,100711.59
2022-11-20T22:56:27.245Z,100708.34
2022-11-20T22:58:57.024Z,100717.88
2022-11-20T23:01:28.384Z,100727.34
2022-11-20T23:06:46.789Z,100727.03
2022-11-20T23:12:07.110Z,100715.41
2022-11-20T23:14:37.594Z,100729.09
2022-11-20T23:17:07.478Z,100724.09
2022-11-20T23:19:39.773Z,100722.34
2022-11-20T23:22:18.290Z,100726.09
2022-11-20T23:24:46.926Z,100723.97
2022-11-20T23:27:20.000Z,100726.16
2022-11-20T23:32:35.386Z,100726.78
2022-11-20T23:35:04.236Z,100718.22
2022-11-20T23:37:33.330Z,100727.63
2022-11-20T23:40:05.680Z,100720.75
2022-11-20T23:42:36.518Z,100727.59
2022-11-20T23:45:05.884Z,100716.09
2022-11-20T23:47:34.737Z,100724.19
2022-11-20T23:50:03.233Z,100719.38
2022-11-20T23:52:32.618Z,100727.03
2022-11-20T23:55:01.120Z,100717.41
2022-11-20T23:57:30.322Z,100716.97
